createdAt,value
2023-11-18T00:00:13.878Z,98077.91
2023-11-18T00:03:16.437Z,98084.13
2023-11-18T00:06:18.564Z,98087.94
2023-11-18T00:09:21.522Z,98085.84
2023-11-18T00:12:25.561Z,98073.50
2023-11-18T00:15:27.925Z,98081.41
2023-11-18T00:18:30.044Z,98059.22
2023-11-18T00:21:32.396Z,98075.25
2023-11-18T00:24:36.279Z,98088.31
2023-11-18T00:27:39.298Z,98077.44
2023-11-18T00:30:41.400Z,98090.03
2023-11-18T00:33:44.441Z,98099.47
2023-11-18T00:36:46.559Z,98114.78
2023-11-18T00:39:48.573Z,98122.09
2023-11-18T00:42:51.207Z,98103.69
2023-11-18T00:45:53.382Z,98098.19
2023-11-18T00:48:59.437Z,98127.47
2023-11-18T00:52:01.585Z,98122.41
2023-11-18T00:55:05.105Z,98109.78
2023-11-18T00:58:07.198Z,98122.13
2023-11-18T01:01:09.351Z,98118.47
2023-11-18T01:04:11.543Z,98109.47
2023-11-18T01:07:13.736Z,98112.41
2023-11-18T01:10:15.839Z,98116.44
2023-11-18T01:13:18.298Z,98119.19
2023-11-18T01:16:21.459Z,98121.13
2023-11-18T01:19:24.826Z,98114.94
2023-11-18T01:22:27.027Z,98130.34
2023-11-18T01:25:29.236Z,98142.34
2023-11-18T01:28:34.387Z,98134.84
2023-11-18T01:31:47.624Z,98131.59
2023-11-18T01:34:54.901Z,98147.16
2023-11-18T01:37:57.038Z,98151.69
2023-11-18T01:40:59.108Z,98150.00
2023-11-18T01:44:01.345Z,98149.44
2023-11-18T01:47:07.221Z,98152.03
2023-11-18T01:50:12.783Z,98149.59
2023-11-18T01:53:18.393Z,98153.72
2023-11-18T01:56:22.567Z,98157.50
2023-11-18T01:59:27.036Z,98148.31
2023-11-18T02:02:29.294Z,98160.00
2023-11-18T02:05:31.416Z,98153.72
2023-11-18T02:08:36.513Z,98143.47
2023-11-18T02:11:44.617Z,98127.31
2023-11-18T02:14:47.214Z,98162.09
2023-11-18T02:17:51.447Z,98163.06
2023-11-18T02:20:58.671Z,98163.34
2023-11-18T02:24:00.804Z,98164.59
2023-11-18T02:27:02.868Z,98171.78
2023-11-18T02:30:07.659Z,98161.44
2023-11-18T02:33:22.555Z,98170.88
2023-11-18T02:36:37.305Z,98176.13
2023-11-18T02:39:46.723Z,98158.91
2023-11-18T02:42:54.495Z,98184.22
2023-11-18T02:45:59.267Z,98186.88
2023-11-18T02:49:03.769Z,98184.78
2023-11-18T02:52:06.450Z,98173.59
2023-11-18T02:55:10.021Z,98162.09
2023-11-18T02:58:12.510Z,98180.88
2023-11-18T03:01:14.540Z,98167.06
2023-11-18T03:04:17.299Z,98172.34
2023-11-18T03:07:19.388Z,98172.69
2023-11-18T03:10:24.455Z,98177.41
2023-11-18T03:13:26.612Z,98178.59
2023-11-18T03:16:28.745Z,98177.03
2023-11-18T03:19:30.921Z,98182.50
2023-11-18T03:22:33.085Z,98180.59
2023-11-18T03:25:35.293Z,98187.28
2023-11-18T03:28:39.088Z,98193.13
2023-11-18T03:31:41.276Z,98196.56
2023-11-18T03:34:43.363Z,98195.53
2023-11-18T03:37:45.480Z,98194.81
2023-11-18T03:40:47.861Z,98188.97
2023-11-18T03:43:49.933Z,98197.41
2023-11-18T03:46:52.413Z,98199.81
2023-11-18T03:49:55.651Z,98198.06
2023-11-18T03:52:57.779Z,98196.41
2023-11-18T03:56:00.315Z,98202.03
2023-11-18T03:59:02.402Z,98195.59
2023-11-18T04:02:04.740Z,98203.03
2023-11-18T04:05:09.525Z,98203.28
2023-11-18T04:08:12.984Z,98213.50
2023-11-18T04:11:15.940Z,98212.31
2023-11-18T04:14:18.164Z,98217.94
2023-11-18T04:17:20.457Z,98208.34
2023-11-18T04:20:22.761Z,98213.78
2023-11-18T04:23:24.881Z,98219.59
2023-11-18T04:26:26.980Z,98225.63
2023-11-18T04:29:29.277Z,98217.78
2023-11-18T04:32:34.386Z,98209.81
2023-11-18T04:35:36.449Z,98210.97
2023-11-18T04:38:38.567Z,98210.72
2023-11-18T04:41:40.716Z,98215.16
2023-11-18T04:44:43.838Z,98202.25
2023-11-18T04:47:46.292Z,98222.06
2023-11-18T04:50:48.845Z,98235.81
2023-11-18T04:53:50.918Z,98226.91
2023-11-18T04:56:53.630Z,98226.56
2023-11-18T04:59:56.047Z,98237.03
2023-11-18T05:02:59.764Z,98227.81
2023-11-18T05:06:02.108Z,98246.22
2023-11-18T05:09:09.009Z,98239.50
2023-11-18T05:12:11.148Z,98246.53
2023-11-18T05:15:14.173Z,98249.97
2023-11-18T05:18:17.276Z,98246.34
2023-11-18T05:21:19.994Z,98259.78
2023-11-18T05:24:22.015Z,98227.44
2023-11-18T05:27:24.236Z,98263.59
2023-11-18T05:30:27.267Z,98261.38
2023-11-18T05:33:30.187Z,98251.66
2023-11-18T05:36:38.678Z,98265.00
2023-11-18T05:39:45.234Z,98243.56
2023-11-18T05:42:49.589Z,98260.38
2023-11-18T05:46:10.161Z,98278.03
2023-11-18T05:49:14.860Z,98271.78
2023-11-18T05:52:16.877Z,98278.53
2023-11-18T05:55:18.803Z,98264.75
2023-11-18T05:58:20.882Z,98285.34
2023-11-18T06:01:23.471Z,98279.59
2023-11-18T06:04:26.974Z,98289.50
2023-11-18T06:07:30.441Z,98289.56
2023-11-18T06:10:33.512Z,98291.59
2023-11-18T06:13:37.929Z,98298.38
2023-11-18T06:16:43.400Z,98308.16
2023-11-18T06:19:45.535Z,98321.47
2023-11-18T06:22:47.584Z,98318.81
2023-11-18T06:25:49.628Z,98337.19
2023-11-18T06:28:51.635Z,98333.56
2023-11-18T06:31:53.670Z,98346.38
2023-11-18T06:36:21.550Z,98344.88
2023-11-18T06:39:56.978Z,98364.03
2023-11-18T06:43:04.253Z,98361.69
2023-11-18T06:46:31.593Z,98368.03
2023-11-18T06:50:14.355Z,98370.44
2023-11-18T06:53:30.811Z,98368.97
2023-11-18T06:56:36.594Z,98378.56
2023-11-18T06:59:41.166Z,98391.34
2023-11-18T07:02:56.190Z,98394.59
2023-11-18T07:10:23.688Z,98405.06
2023-11-18T07:13:40.328Z,98408.22
2023-11-18T07:17:17.170Z,98401.50
2023-11-18T07:21:22.636Z,98409.41
2023-11-18T07:24:33.758Z,98404.41
2023-11-18T07:27:38.600Z,98417.13
2023-11-18T07:30:51.040Z,98400.66
2023-11-18T07:33:54.099Z,98416.13
2023-11-18T07:36:59.266Z,98422.03
2023-11-18T07:40:09.974Z,98427.13
2023-11-18T07:43:17.312Z,98425.94
2023-11-18T07:46:19.468Z,98406.22
2023-11-18T07:49:22.264Z,98431.31
2023-11-18T07:52:25.211Z,98427.03
2023-11-18T07:55:27.290Z,98434.31
2023-11-18T07:58:29.290Z,98427.69
2023-11-18T08:01:31.860Z,98430.78
2023-11-18T08:04:34.053Z,98425.59
2023-11-18T08:07:36.632Z,98399.50
2023-11-18T08:10:40.534Z,98426.13
2023-11-18T08:13:42.654Z,98432.88
2023-11-18T08:16:44.856Z,98425.66
2023-11-18T08:19:47.848Z,98433.78
2023-11-18T08:22:50.201Z,98437.16
2023-11-18T08:25:52.273Z,98444.59
2023-11-18T08:28:54.764Z,98447.69
2023-11-18T08:31:56.953Z,98451.03
2023-11-18T08:34:59.124Z,98420.66
2023-11-18T08:38:03.126Z,98449.25
2023-11-18T08:41:11.324Z,98458.41
2023-11-18T08:44:22.217Z,98419.31
2023-11-18T08:47:26.937Z,98440.19
2023-11-18T08:50:30.094Z,98411.13
2023-11-18T08:53:37.338Z,98453.38
2023-11-18T08:56:43.306Z,98440.47
2023-11-18T08:59:45.919Z,98460.94
2023-11-18T09:02:54.061Z,98460.88
2023-11-18T09:05:59.414Z,98453.22
2023-11-18T09:09:07.391Z,98465.69
2023-11-18T09:12:09.812Z,98457.69
2023-11-18T09:15:19.346Z,98461.75
2023-11-18T09:18:23.323Z,98453.22
2023-11-18T09:21:30.821Z,98468.31
2023-11-18T09:24:35.566Z,98472.22
2023-11-18T09:27:39.848Z,98433.84
2023-11-18T09:30:58.878Z,98447.97
2023-11-18T09:34:01.418Z,98466.03
2023-11-18T09:37:05.426Z,98472.50
2023-11-18T09:40:14.933Z,98465.97
2023-11-18T09:43:18.191Z,98463.69
2023-11-18T09:46:32.585Z,98473.53
2023-11-18T09:49:57.716Z,98463.13
2023-11-18T09:53:08.249Z,98467.69
2023-11-18T09:56:27.810Z,98452.66
2023-11-18T09:59:37.335Z,98458.09
2023-11-18T10:02:42.790Z,98460.31
2023-11-18T10:05:47.072Z,98461.47
2023-11-18T10:08:54.706Z,98426.03
2023-11-18T10:12:07.013Z,98462.13
2023-11-18T10:15:20.360Z,98447.88
2023-11-18T10:18:24.516Z,98456.25
2023-11-18T10:21:42.672Z,98448.56
2023-11-18T10:24:55.892Z,98455.09
2023-11-18T10:28:02.501Z,98439.81
2023-11-18T10:31:10.969Z,98451.13
2023-11-18T10:34:17.226Z,98446.97
2023-11-18T10:37:19.323Z,98437.72
2023-11-18T10:40:25.445Z,98443.91
2023-11-18T10:43:30.133Z,98444.16
2023-11-18T10:46:33.563Z,98447.69
2023-11-18T10:49:38.767Z,98438.06
2023-11-18T10:52:42.687Z,98436.38
2023-11-18T10:55:45.427Z,98446.44
2023-11-18T10:58:47.882Z,98398.22
2023-11-18T11:01:53.113Z,98444.78
2023-11-18T11:04:55.306Z,98439.16
2023-11-18T11:07:58.508Z,98451.72
2023-11-18T11:11:04.906Z,98452.91
2023-11-18T11:14:12.116Z,98445.28
2023-11-18T11:17:27.000Z,98455.13
2023-11-18T11:20:36.490Z,98443.91
2023-11-18T11:23:55.437Z,98457.13
2023-11-18T11:27:07.142Z,98464.75
2023-11-18T11:30:26.665Z,98449.84
2023-11-18T11:34:00.294Z,98452.53
2023-11-18T11:37:04.675Z,98456.25
2023-11-18T11:40:11.858Z,98461.91
2023-11-18T11:43:17.196Z,98468.25
2023-11-18T11:46:26.041Z,98462.91
2023-11-18T11:49:38.323Z,98455.56
2023-11-18T11:52:50.253Z,98480.22
2023-11-18T11:55:54.769Z,98472.00
2023-11-18T11:59:01.241Z,98462.91
2023-11-18T12:02:09.008Z,98465.63
2023-11-18T12:05:20.596Z,98464.19
2023-11-18T12:08:24.567Z,98460.16
2023-11-18T12:11:29.417Z,98433.94
2023-11-18T12:14:39.304Z,98468.22
2023-11-18T12:18:04.789Z,98457.41
2023-11-18T12:21:12.648Z,98459.28
2023-11-18T12:24:20.203Z,98466.25
2023-11-18T12:27:40.826Z,98458.72
2023-11-18T12:30:53.731Z,98468.19
2023-11-18T12:33:55.821Z,98466.19
2023-11-18T12:37:35.994Z,98470.28
2023-11-18T12:41:01.302Z,98479.41
2023-11-18T12:44:19.856Z,98479.41
2023-11-18T12:47:29.953Z,98480.59
2023-11-18T12:50:37.113Z,98472.66
2023-11-18T12:53:39.745Z,98480.59
2023-11-18T12:56:45.467Z,98445.88
2023-11-18T12:59:47.790Z,98462.22
2023-11-18T13:02:50.053Z,98477.47
2023-11-18T13:05:53.412Z,98476.72
2023-11-18T13:08:56.082Z,98482.56
2023-11-18T13:12:03.018Z,98480.38
2023-11-18T13:15:09.979Z,98479.03
2023-11-18T13:18:13.634Z,98454.88
2023-11-18T13:21:17.813Z,98475.88
2023-11-18T13:24:19.882Z,98478.97
2023-11-18T13:27:24.315Z,98481.66
2023-11-18T13:30:26.274Z,98474.44
2023-11-18T13:33:29.203Z,98466.91
2023-11-18T13:36:33.307Z,98476.56
2023-11-18T13:39:39.883Z,98479.66
2023-11-18T13:42:43.425Z,98480.34
2023-11-18T13:45:53.413Z,98470.03
2023-11-18T13:48:55.532Z,98480.22
2023-11-18T13:51:58.795Z,98411.34
2023-11-18T13:55:01.745Z,98453.06
2023-11-18T13:58:06.295Z,98463.31
2023-11-18T14:01:09.610Z,98467.31
2023-11-18T14:04:12.030Z,98462.31
2023-11-18T14:07:18.731Z,98480.84
2023-11-18T14:10:20.918Z,98488.22
2023-11-18T14:13:23.528Z,98476.38
2023-11-18T14:16:27.558Z,98487.09
2023-11-18T14:19:33.273Z,98485.66
2023-11-18T14:22:35.604Z,98481.09
2023-11-18T14:25:38.762Z,98465.19
2023-11-18T14:28:41.953Z,98467.78
2023-11-18T14:31:45.550Z,98477.38
2023-11-18T14:34:50.290Z,98480.25
2023-11-18T14:37:52.438Z,98453.81
2023-11-18T14:40:54.933Z,98461.31
2023-11-18T14:43:58.804Z,98468.00
2023-11-18T14:47:01.519Z,98474.94
2023-11-18T14:50:04.439Z,98489.06
2023-11-18T14:53:07.291Z,98484.59
2023-11-18T14:56:10.220Z,98481.06
2023-11-18T14:59:13.712Z,98488.13
2023-11-18T15:02:16.252Z,98491.16
2023-11-18T15:05:19.872Z,98480.03
2023-11-18T15:08:22.086Z,98459.91
2023-11-18T15:11:24.932Z,98504.00
2023-11-18T15:14:27.223Z,98505.94
2023-11-18T15:17:41.284Z,98497.75
2023-11-18T15:20:48.966Z,98518.06
2023-11-18T15:23:51.544Z,98523.22
2023-11-18T15:26:53.603Z,98528.53
2023-11-18T15:29:56.355Z,98524.88
2023-11-18T15:32:59.051Z,98527.03
2023-11-18T15:36:02.704Z,98539.56
2023-11-18T15:39:05.679Z,98531.69
2023-11-18T15:42:08.580Z,98531.06
2023-11-18T15:45:12.312Z,98524.84
2023-11-18T15:48:16.090Z,98519.84
2023-11-18T15:51:21.168Z,98522.38
2023-11-18T15:54:23.311Z,98514.56
2023-11-18T15:57:25.346Z,98512.66
2023-11-18T16:00:29.796Z,98509.44
2023-11-18T16:03:32.349Z,98517.13
2023-11-18T16:06:34.634Z,98503.00
2023-11-18T16:09:36.885Z,98503.19
2023-11-18T16:12:39.084Z,98502.41
2023-11-18T16:15:42.381Z,98498.78
2023-11-18T16:18:44.662Z,98500.66
2023-11-18T16:21:48.453Z,98502.06
2023-11-18T16:24:50.518Z,98508.13
2023-11-18T16:27:53.861Z,98504.69
2023-11-18T16:31:00.988Z,98521.59
2023-11-18T16:34:04.003Z,98531.13
2023-11-18T16:37:06.091Z,98497.97
2023-11-18T16:40:16.116Z,98539.47
2023-11-18T16:43:18.249Z,98535.53
2023-11-18T16:46:20.348Z,98546.09
2023-11-18T16:49:25.105Z,98552.53
2023-11-18T16:52:27.476Z,98543.66
2023-11-18T16:55:32.894Z,98530.84
2023-11-18T16:58:36.631Z,98525.91
2023-11-18T17:01:38.895Z,98532.78
2023-11-18T17:04:41.344Z,98515.38
2023-11-18T17:07:44.361Z,98508.22
2023-11-18T17:10:53.430Z,98485.25
2023-11-18T17:13:55.579Z,98522.00
2023-11-18T17:16:58.490Z,98531.06
2023-11-18T17:20:01.533Z,98516.28
2023-11-18T17:23:04.624Z,98528.75
2023-11-18T17:26:10.201Z,98530.84
2023-11-18T17:29:15.165Z,98526.09
2023-11-18T17:32:17.581Z,98532.47
2023-11-18T17:35:21.622Z,98532.59
2023-11-18T17:38:23.941Z,98536.22
2023-11-18T17:41:26.730Z,98520.09
2023-11-18T17:44:29.393Z,98533.34
2023-11-18T17:47:35.937Z,98533.31
2023-11-18T17:50:38.607Z,98543.78
2023-11-18T17:53:40.796Z,98542.91
2023-11-18T17:56:43.041Z,98550.91
2023-11-18T17:59:45.349Z,98552.53
2023-11-18T18:02:48.474Z,98555.91
2023-11-18T18:05:52.488Z,98555.22
2023-11-18T18:08:55.064Z,98548.75
2023-11-18T18:11:57.594Z,98551.84
2023-11-18T18:15:00.238Z,98541.94
2023-11-18T18:18:03.222Z,98551.88
2023-11-18T18:21:05.498Z,98545.25
2023-11-18T18:24:08.327Z,98551.22
2023-11-18T18:27:10.870Z,98553.09
2023-11-18T18:30:17.997Z,98552.91
2023-11-18T18:33:21.208Z,98556.78
2023-11-18T18:36:23.378Z,98552.44
2023-11-18T18:39:25.687Z,98546.47
2023-11-18T18:42:28.457Z,98547.06
2023-11-18T18:45:32.094Z,98547.13
2023-11-18T18:48:34.999Z,98543.75
2023-11-18T18:51:37.314Z,98542.69
2023-11-18T18:54:39.850Z,98565.94
2023-11-18T18:57:42.102Z,98572.19
2023-11-18T19:00:44.568Z,98572.38
2023-11-18T19:03:47.315Z,98556.88
2023-11-18T19:06:51.171Z,98557.06
2023-11-18T19:09:53.308Z,98555.88
2023-11-18T19:13:01.151Z,98556.00
2023-11-18T19:16:05.759Z,98525.94
2023-11-18T19:19:07.875Z,98553.28
2023-11-18T19:22:09.861Z,98546.97
2023-11-18T19:25:14.399Z,98535.84
2023-11-18T19:28:17.044Z,98525.28
2023-11-18T19:31:19.815Z,98526.25
2023-11-18T19:34:24.426Z,98522.00
2023-11-18T19:37:26.612Z,98512.97
2023-11-18T19:40:30.136Z,98502.25
2023-11-18T19:43:34.799Z,98506.81
2023-11-18T19:46:36.896Z,98518.88
2023-11-18T19:49:39.070Z,98513.41
2023-11-18T19:52:48.579Z,98487.06
2023-11-18T19:55:54.126Z,98515.91
2023-11-18T19:58:58.561Z,98514.53
2023-11-18T20:02:02.658Z,98511.53
2023-11-18T20:05:06.048Z,98508.22
2023-11-18T20:08:08.457Z,98505.06
2023-11-18T20:11:11.443Z,98499.28
2023-11-18T20:14:14.061Z,98507.69
2023-11-18T20:17:16.186Z,98509.09
2023-11-18T20:20:19.545Z,98522.28
2023-11-18T20:23:23.090Z,98524.88
2023-11-18T20:26:26.596Z,98511.97
2023-11-18T20:29:30.723Z,98510.47
2023-11-18T20:32:35.011Z,98498.25
2023-11-18T20:35:38.266Z,98491.50
2023-11-18T20:38:40.561Z,98481.63
2023-11-18T20:41:42.969Z,98473.25
2023-11-18T20:44:45.239Z,98480.25
2023-11-18T20:47:48.462Z,98487.25
2023-11-18T20:50:52.927Z,98434.47
2023-11-18T20:53:55.112Z,98468.31
2023-11-18T20:56:57.228Z,98450.91
2023-11-18T20:59:59.848Z,98466.25
2023-11-18T21:03:03.268Z,98453.50
2023-11-18T21:06:06.903Z,98437.16
2023-11-18T21:09:09.318Z,98427.56
2023-11-18T21:12:18.266Z,98429.63
2023-11-18T21:15:21.495Z,98424.09
2023-11-18T21:18:24.185Z,98390.25
2023-11-18T21:21:26.449Z,98416.16
2023-11-18T21:24:28.990Z,98396.09
2023-11-18T21:27:31.638Z,98410.53
2023-11-18T21:30:34.004Z,98410.53
2023-11-18T21:33:38.819Z,98395.81
2023-11-18T21:36:41.365Z,98392.94
2023-11-18T21:39:43.938Z,98386.47
2023-11-18T21:42:47.801Z,98379.88
2023-11-18T21:45:51.399Z,98370.81
2023-11-18T21:48:53.745Z,98366.25
2023-11-18T21:51:56.814Z,98354.56
2023-11-18T21:54:59.670Z,98367.34
2023-11-18T21:58:02.811Z,98362.78
2023-11-18T22:01:07.194Z,98354.69
2023-11-18T22:04:09.719Z,98337.00
2023-11-18T22:07:13.098Z,98332.28
2023-11-18T22:10:18.336Z,98341.16
2023-11-18T22:13:21.481Z,98338.09
2023-11-18T22:16:27.077Z,98347.16
2023-11-18T22:19:29.521Z,98340.34
2023-11-18T22:22:34.670Z,98346.78
2023-11-18T22:25:37.366Z,98347.16
2023-11-18T22:28:40.929Z,98343.16
2023-11-18T22:31:46.429Z,98338.44
2023-11-18T22:34:48.956Z,98330.53
2023-11-18T22:37:51.473Z,98328.84
2023-11-18T22:40:54.072Z,98315.69
2023-11-18T22:44:01.424Z,98319.34
2023-11-18T22:47:05.957Z,98305.00
2023-11-18T22:50:16.537Z,98283.88
2023-11-18T22:53:19.055Z,98298.34
2023-11-18T22:56:21.635Z,98308.50
2023-11-18T22:59:24.124Z,98303.13
2023-11-18T23:02:26.243Z,98294.97
2023-11-18T23:05:28.424Z,98285.69
2023-11-18T23:08:33.611Z,98263.16
2023-11-18T23:11:35.655Z,98276.13
2023-11-18T23:14:57.721Z,98291.66
2023-11-18T23:18:02.218Z,98290.66
2023-11-18T23:21:04.559Z,98279.91
2023-11-18T23:24:07.173Z,98277.00
2023-11-18T23:27:09.798Z,98274.06
2023-11-18T23:30:15.087Z,98271.28
2023-11-18T23:33:19.888Z,98258.88
2023-11-18T23:36:22.561Z,98253.66
2023-11-18T23:39:30.055Z,98253.38
2023-11-18T23:42:33.255Z,98264.47
2023-11-18T23:45:35.413Z,98241.91
2023-11-18T23:48:45.284Z,98237.84
2023-11-18T23:51:48.106Z,98237.53
2023-11-18T23:54:51.678Z,98236.41
2023-11-18T23:57:53.937Z,98236.09
